sensor_id;sensor_type;location;lat;lon;timestamp;temperature;humidity
6270;DHT22;3168;51.684;6.954;2022-11-30T00:01:20;7.60;99.90
6270;DHT22;3168;51.684;6.954;2022-11-30T00:03:45;7.50;99.90
6270;DHT22;3168;51.684;6.954;2022-11-30T00:06:12;7.40;99.90
6270;DHT22;3168;51.684;6.954;2022-11-30T00:08:37;7.40;99.90
6270;DHT22;3168;51.684;6.954;2022-11-30T00:11:07;7.30;99.90
6270;DHT22;3168;51.684;6.954;2022-11-30T00:13:32;7.40;99.90
6270;DHT22;3168;51.684;6.954;2022-11-30T00:15:59;7.30;99.90
6270;DHT22;3168;51.684;6.954;2022-11-30T00:18:24;7.30;99.90
6270;DHT22;3168;51.684;6.954;2022-11-30T00:20:50;7.30;99.90
6270;DHT22;3168;51.684;6.954;2022-11-30T00:23:16;7.20;99.90
6270;DHT22;3168;51.684;6.954;2022-11-30T00:25:42;7.20;99.90
6270;DHT22;3168;51.684;6.954;2022-11-30T00:28:08;7.10;99.90
6270;DHT22;3168;51.684;6.954;2022-11-30T00:30:33;7.00;99.90
6270;DHT22;3168;51.684;6.954;2022-11-30T00:32:59;7.00;99.90
6270;DHT22;3168;51.684;6.954;2022-11-30T00:35:25;7.00;99.90
6270;DHT22;3168;51.684;6.954;2022-11-30T00:37:51;7.00;99.90
6270;DHT22;3168;51.684;6.954;2022-11-30T00:40:17;7.00;99.90
6270;DHT22;3168;51.684;6.954;2022-11-30T00:42:42;6.90;99.90
6270;DHT22;3168;51.684;6.954;2022-11-30T00:45:09;6.90;99.90
6270;DHT22;3168;51.684;6.954;2022-11-30T00:47:34;6.90;99.90
6270;DHT22;3168;51.684;6.954;2022-11-30T00:50:01;6.80;99.90
6270;DHT22;3168;51.684;6.954;2022-11-30T00:52:27;6.80;99.90
6270;DHT22;3168;51.684;6.954;2022-11-30T00:54:52;6.70;99.90
6270;DHT22;3168;51.684;6.954;2022-11-30T00:57:18;6.70;99.90
6270;DHT22;3168;51.684;6.954;2022-11-30T00:59:43;6.70;99.90
6270;DHT22;3168;51.684;6.954;2022-11-30T01:02:09;6.70;99.90
6270;DHT22;3168;51.684;6.954;2022-11-30T01:04:35;6.70;99.90
6270;DHT22;3168;51.684;6.954;2022-11-30T01:07:01;6.70;99.90
6270;DHT22;3168;51.684;6.954;2022-11-30T01:09:26;6.70;99.90
6270;DHT22;3168;51.684;6.954;2022-11-30T01:11:52;6.70;99.90
6270;DHT22;3168;51.684;6.954;2022-11-30T01:14:18;6.70;99.90
6270;DHT22;3168;51.684;6.954;2022-11-30T01:16:44;6.70;99.90
6270;DHT22;3168;51.684;6.954;2022-11-30T01:19:10;6.60;99.90
6270;DHT22;3168;51.684;6.954;2022-11-30T01:21:36;6.60;99.90
6270;DHT22;3168;51.684;6.954;2022-11-30T01:24:02;6.50;99.90
6270;DHT22;3168;51.684;6.954;2022-11-30T01:26:28;6.50;99.90
6270;DHT22;3168;51.684;6.954;2022-11-30T01:28:54;6.50;99.90
6270;DHT22;3168;51.684;6.954;2022-11-30T01:31:20;6.60;99.90
6270;DHT22;3168;51.684;6.954;2022-11-30T01:33:49;6.60;99.90
6270;DHT22;3168;51.684;6.954;2022-11-30T01:36:15;6.60;99.90
6270;DHT22;3168;51.684;6.954;2022-11-30T01:38:41;6.60;99.90
6270;DHT22;3168;51.684;6.954;2022-11-30T01:41:07;6.60;99.90
6270;DHT22;3168;51.684;6.954;2022-11-30T01:43:48;6.60;99.90
6270;DHT22;3168;51.684;6.954;2022-11-30T01:46:29;6.60;99.90
6270;DHT22;3168;51.684;6.954;2022-11-30T01:49:16;6.60;99.90
6270;DHT22;3168;51.684;6.954;2022-11-30T01:51:45;6.60;99.90
6270;DHT22;3168;51.684;6.954;2022-11-30T01:54:10;6.60;99.90
6270;DHT22;3168;51.684;6.954;2022-11-30T01:56:35;6.60;99.90
6270;DHT22;3168;51.684;6.954;2022-11-30T01:59:00;6.50;99.90
6270;DHT22;3168;51.684;6.954;2022-11-30T02:01:26;6.50;99.90
6270;DHT22;3168;51.684;6.954;2022-11-30T02:03:57;6.50;99.90
6270;DHT22;3168;51.684;6.954;2022-11-30T02:06:21;6.50;99.90
6270;DHT22;3168;51.684;6.954;2022-11-30T02:08:46;6.60;99.90
6270;DHT22;3168;51.684;6.954;2022-11-30T02:11:12;6.60;99.90
6270;DHT22;3168;51.684;6.954;2022-11-30T02:13:51;6.60;99.90
6270;DHT22;3168;51.684;6.954;2022-11-30T02:16:17;6.60;99.90
6270;DHT22;3168;51.684;6.954;2022-11-30T02:18:50;6.50;99.90
6270;DHT22;3168;51.684;6.954;2022-11-30T02:21:34;6.50;99.90
6270;DHT22;3168;51.684;6.954;2022-11-30T02:29:48;6.60;99.90
6270;DHT22;3168;51.684;6.954;2022-11-30T02:32:15;6.60;99.90
6270;DHT22;3168;51.684;6.954;2022-11-30T02:34:39;6.60;99.90
6270;DHT22;3168;51.684;6.954;2022-11-30T02:37:05;6.70;99.90
6270;DHT22;3168;51.684;6.954;2022-11-30T02:39:30;6.60;99.90
6270;DHT22;3168;51.684;6.954;2022-11-30T02:41:56;6.70;99.90
6270;DHT22;3168;51.684;6.954;2022-11-30T02:44:22;6.60;99.90
6270;DHT22;3168;51.684;6.954;2022-11-30T02:46:58;6.60;99.90
6270;DHT22;3168;51.684;6.954;2022-11-30T02:49:31;6.60;99.90
6270;DHT22;3168;51.684;6.954;2022-11-30T02:51:55;6.70;99.90
6270;DHT22;3168;51.684;6.954;2022-11-30T02:54:21;6.60;99.90
6270;DHT22;3168;51.684;6.954;2022-11-30T02:56:46;6.60;99.90
6270;DHT22;3168;51.684;6.954;2022-11-30T02:59:12;6.60;99.90
6270;DHT22;3168;51.684;6.954;2022-11-30T03:01:38;6.60;99.90
6270;DHT22;3168;51.684;6.954;2022-11-30T03:04:04;6.60;99.90
6270;DHT22;3168;51.684;6.954;2022-11-30T03:06:30;6.60;99.90
6270;DHT22;3168;51.684;6.954;2022-11-30T03:08:55;6.60;99.90
6270;DHT22;3168;51.684;6.954;2022-11-30T03:11:21;6.70;99.90
6270;DHT22;3168;51.684;6.954;2022-11-30T03:13:47;6.60;99.90
6270;DHT22;3168;51.684;6.954;2022-11-30T03:16:14;6.60;99.90
6270;DHT22;3168;51.684;6.954;2022-11-30T03:18:39;6.60;99.90
6270;DHT22;3168;51.684;6.954;2022-11-30T03:21:08;6.60;99.90
6270;DHT22;3168;51.684;6.954;2022-11-30T03:23:32;6.60;99.90
6270;DHT22;3168;51.684;6.954;2022-11-30T03:25:58;6.60;99.90
6270;DHT22;3168;51.684;6.954;2022-11-30T03:28:24;6.70;99.90
6270;DHT22;3168;51.684;6.954;2022-11-30T03:30:49;6.70;99.90
6270;DHT22;3168;51.684;6.954;2022-11-30T03:33:15;6.60;99.90
6270;DHT22;3168;51.684;6.954;2022-11-30T03:35:41;6.70;99.90
6270;DHT22;3168;51.684;6.954;2022-11-30T03:38:07;6.70;99.90
6270;DHT22;3168;51.684;6.954;2022-11-30T03:40:32;6.70;99.90
6270;DHT22;3168;51.684;6.954;2022-11-30T03:42:59;6.60;99.90
6270;DHT22;3168;51.684;6.954;2022-11-30T03:45:24;6.60;99.90
6270;DHT22;3168;51.684;6.954;2022-11-30T03:47:50;6.60;99.90
6270;DHT22;3168;51.684;6.954;2022-11-30T03:50:16;6.60;99.90
6270;DHT22;3168;51.684;6.954;2022-11-30T03:52:42;6.70;99.90
6270;DHT22;3168;51.684;6.954;2022-11-30T03:55:08;6.60;99.90
6270;DHT22;3168;51.684;6.954;2022-11-30T03:57:34;6.50;99.90
6270;DHT22;3168;51.684;6.954;2022-11-30T04:00:00;6.60;99.90
6270;DHT22;3168;51.684;6.954;2022-11-30T04:02:25;6.60;99.90
6270;DHT22;3168;51.684;6.954;2022-11-30T04:04:51;6.60;99.90
6270;DHT22;3168;51.684;6.954;2022-11-30T04:07:17;6.60;99.90
6270;DHT22;3168;51.684;6.954;2022-11-30T04:09:44;6.60;99.90
6270;DHT22;3168;51.684;6.954;2022-11-30T04:12:09;6.50;99.90
6270;DHT22;3168;51.684;6.954;2022-11-30T04:14:35;6.60;99.90
6270;DHT22;3168;51.684;6.954;2022-11-30T04:17:01;6.50;99.90
6270;DHT22;3168;51.684;6.954;2022-11-30T04:19:27;6.60;99.90
6270;DHT22;3168;51.684;6.954;2022-11-30T04:21:52;6.50;99.90
6270;DHT22;3168;51.684;6.954;2022-11-30T04:24:18;6.50;99.90
6270;DHT22;3168;51.684;6.954;2022-11-30T04:26:44;6.60;99.90
6270;DHT22;3168;51.684;6.954;2022-11-30T04:29:10;6.60;99.90
6270;DHT22;3168;51.684;6.954;2022-11-30T04:31:36;6.60;99.90
6270;DHT22;3168;51.684;6.954;2022-11-30T04:34:01;6.60;99.90
6270;DHT22;3168;51.684;6.954;2022-11-30T04:36:27;6.60;99.90
6270;DHT22;3168;51.684;6.954;2022-11-30T04:38:53;6.60;99.90
6270;DHT22;3168;51.684;6.954;2022-11-30T04:41:19;6.60;99.90
6270;DHT22;3168;51.684;6.954;2022-11-30T04:43:45;6.60;99.90
6270;DHT22;3168;51.684;6.954;2022-11-30T04:46:10;6.60;99.90
6270;DHT22;3168;51.684;6.954;2022-11-30T04:48:36;6.60;99.90
6270;DHT22;3168;51.684;6.954;2022-11-30T04:51:03;6.60;99.90
6270;DHT22;3168;51.684;6.954;2022-11-30T04:53:28;6.60;99.90
6270;DHT22;3168;51.684;6.954;2022-11-30T04:55:54;6.60;99.90
6270;DHT22;3168;51.684;6.954;2022-11-30T04:58:20;6.60;99.90
6270;DHT22;3168;51.684;6.954;2022-11-30T05:00:46;6.60;99.90
6270;DHT22;3168;51.684;6.954;2022-11-30T05:03:11;6.60;99.90
6270;DHT22;3168;51.684;6.954;2022-11-30T05:05:37;6.60;99.90
6270;DHT22;3168;51.684;6.954;2022-11-30T05:08:03;6.60;99.90
6270;DHT22;3168;51.684;6.954;2022-11-30T05:10:29;6.60;99.90
6270;DHT22;3168;51.684;6.954;2022-11-30T05:12:55;6.60;99.90
6270;DHT22;3168;51.684;6.954;2022-11-30T05:15:20;6.60;99.90
6270;DHT22;3168;51.684;6.954;2022-11-30T05:17:47;6.70;99.90
6270;DHT22;3168;51.684;6.954;2022-11-30T05:20:13;6.70;99.90
6270;DHT22;3168;51.684;6.954;2022-11-30T05:22:38;6.60;99.90
6270;DHT22;3168;51.684;6.954;2022-11-30T05:25:05;6.70;99.90
6270;DHT22;3168;51.684;6.954;2022-11-30T05:27:31;6.60;99.90
6270;DHT22;3168;51.684;6.954;2022-11-30T05:29:56;6.60;99.90
6270;DHT22;3168;51.684;6.954;2022-11-30T05:32:22;6.70;99.90
6270;DHT22;3168;51.684;6.954;2022-11-30T05:34:48;6.70;99.90
6270;DHT22;3168;51.684;6.954;2022-11-30T05:37:14;6.60;99.90
6270;DHT22;3168;51.684;6.954;2022-11-30T05:39:40;6.60;99.90
6270;DHT22;3168;51.684;6.954;2022-11-30T05:42:05;6.60;99.90
6270;DHT22;3168;51.684;6.954;2022-11-30T05:44:31;6.60;99.90
6270;DHT22;3168;51.684;6.954;2022-11-30T05:46:57;6.70;99.90
6270;DHT22;3168;51.684;6.954;2022-11-30T05:49:23;6.60;99.90
6270;DHT22;3168;51.684;6.954;2022-11-30T05:51:49;6.60;99.90
6270;DHT22;3168;51.684;6.954;2022-11-30T05:54:14;6.60;99.90
6270;DHT22;3168;51.684;6.954;2022-11-30T05:56:40;6.70;99.90
6270;DHT22;3168;51.684;6.954;2022-11-30T05:59:08;6.60;99.90
6270;DHT22;3168;51.684;6.954;2022-11-30T06:01:33;6.60;99.90
6270;DHT22;3168;51.684;6.954;2022-11-30T06:03:58;6.60;99.90
6270;DHT22;3168;51.684;6.954;2022-11-30T06:06:24;6.60;99.90
6270;DHT22;3168;51.684;6.954;2022-11-30T06:08:50;6.60;99.90
6270;DHT22;3168;51.684;6.954;2022-11-30T06:11:16;6.60;99.90
6270;DHT22;3168;51.684;6.954;2022-11-30T06:13:42;6.60;99.90
6270;DHT22;3168;51.684;6.954;2022-11-30T06:16:07;6.60;99.90
6270;DHT22;3168;51.684;6.954;2022-11-30T06:18:35;6.60;99.90
6270;DHT22;3168;51.684;6.954;2022-11-30T06:21:01;6.60;99.90
6270;DHT22;3168;51.684;6.954;2022-11-30T06:23:27;6.60;99.90
6270;DHT22;3168;51.684;6.954;2022-11-30T06:25:52;6.60;99.90
6270;DHT22;3168;51.684;6.954;2022-11-30T06:28:18;6.60;99.90
6270;DHT22;3168;51.684;6.954;2022-11-30T06:30:44;6.60;99.90
6270;DHT22;3168;51.684;6.954;2022-11-30T06:33:10;6.60;99.90
6270;DHT22;3168;51.684;6.954;2022-11-30T06:35:35;6.60;99.90
6270;DHT22;3168;51.684;6.954;2022-11-30T06:38:01;6.70;99.90
6270;DHT22;3168;51.684;6.954;2022-11-30T06:40:27;6.60;99.90
6270;DHT22;3168;51.684;6.954;2022-11-30T06:42:53;6.70;99.90
6270;DHT22;3168;51.684;6.954;2022-11-30T06:45:19;6.60;99.90
6270;DHT22;3168;51.684;6.954;2022-11-30T06:47:44;6.70;99.90
6270;DHT22;3168;51.684;6.954;2022-11-30T06:50:11;6.70;99.90
6270;DHT22;3168;51.684;6.954;2022-11-30T06:52:36;6.60;99.90
6270;DHT22;3168;51.684;6.954;2022-11-30T06:55:02;6.60;99.90
6270;DHT22;3168;51.684;6.954;2022-11-30T06:57:28;6.60;99.90
6270;DHT22;3168;51.684;6.954;2022-11-30T06:59:54;6.60;99.90
6270;DHT22;3168;51.684;6.954;2022-11-30T07:02:20;6.60;99.90
6270;DHT22;3168;51.684;6.954;2022-11-30T07:04:46;6.60;99.90
6270;DHT22;3168;51.684;6.954;2022-11-30T07:07:12;6.60;99.90
6270;DHT22;3168;51.684;6.954;2022-11-30T07:09:38;6.60;99.90
6270;DHT22;3168;51.684;6.954;2022-11-30T07:12:04;6.60;99.90
6270;DHT22;3168;51.684;6.954;2022-11-30T07:14:30;6.60;99.90
6270;DHT22;3168;51.684;6.954;2022-11-30T07:16:56;6.60;99.90
6270;DHT22;3168;51.684;6.954;2022-11-30T07:19:22;6.60;99.90
6270;DHT22;3168;51.684;6.954;2022-11-30T07:21:47;6.60;99.90
6270;DHT22;3168;51.684;6.954;2022-11-30T07:24:14;6.60;99.90
6270;DHT22;3168;51.684;6.954;2022-11-30T07:26:46;6.60;99.90
6270;DHT22;3168;51.684;6.954;2022-11-30T07:29:12;6.60;99.90
6270;DHT22;3168;51.684;6.954;2022-11-30T07:31:37;6.60;99.90
6270;DHT22;3168;51.684;6.954;2022-11-30T07:34:05;6.50;99.90
6270;DHT22;3168;51.684;6.954;2022-11-30T07:36:30;6.50;99.90
6270;DHT22;3168;51.684;6.954;2022-11-30T07:38:56;6.60;99.90
6270;DHT22;3168;51.684;6.954;2022-11-30T07:41:21;6.60;99.90
6270;DHT22;3168;51.684;6.954;2022-11-30T07:43:47;6.60;99.90
6270;DHT22;3168;51.684;6.954;2022-11-30T07:46:14;6.60;99.90
6270;DHT22;3168;51.684;6.954;2022-11-30T07:48:39;6.60;99.90
6270;DHT22;3168;51.684;6.954;2022-11-30T07:51:06;6.60;99.90
6270;DHT22;3168;51.684;6.954;2022-11-30T07:53:31;6.60;99.90
6270;DHT22;3168;51.684;6.954;2022-11-30T07:56:02;6.60;99.90
6270;DHT22;3168;51.684;6.954;2022-11-30T07:58:27;6.60;99.90
6270;DHT22;3168;51.684;6.954;2022-11-30T08:00:53;6.60;99.90
6270;DHT22;3168;51.684;6.954;2022-11-30T08:03:19;6.60;99.90
6270;DHT22;3168;51.684;6.954;2022-11-30T08:05:45;6.60;99.90
6270;DHT22;3168;51.684;6.954;2022-11-30T08:08:11;6.60;99.90
6270;DHT22;3168;51.684;6.954;2022-11-30T08:10:37;6.60;99.90
6270;DHT22;3168;51.684;6.954;2022-11-30T08:13:03;6.60;99.90
6270;DHT22;3168;51.684;6.954;2022-11-30T08:15:29;6.60;99.90
6270;DHT22;3168;51.684;6.954;2022-11-30T08:17:55;6.60;99.90
6270;DHT22;3168;51.684;6.954;2022-11-30T08:20:20;6.70;99.90
6270;DHT22;3168;51.684;6.954;2022-11-30T08:22:46;6.60;99.90
6270;DHT22;3168;51.684;6.954;2022-11-30T08:25:12;6.60;99.90
6270;DHT22;3168;51.684;6.954;2022-11-30T08:27:38;6.60;99.90
6270;DHT22;3168;51.684;6.954;2022-11-30T08:30:05;6.60;99.90
6270;DHT22;3168;51.684;6.954;2022-11-30T08:32:31;6.60;99.90
6270;DHT22;3168;51.684;6.954;2022-11-30T08:34:57;6.60;99.90
6270;DHT22;3168;51.684;6.954;2022-11-30T08:37:22;6.60;99.90
6270;DHT22;3168;51.684;6.954;2022-11-30T08:39:49;6.70;99.90
6270;DHT22;3168;51.684;6.954;2022-11-30T08:42:15;6.60;99.90
6270;DHT22;3168;51.684;6.954;2022-11-30T08:44:41;6.70;99.90
6270;DHT22;3168;51.684;6.954;2022-11-30T08:47:06;6.70;99.90
6270;DHT22;3168;51.684;6.954;2022-11-30T08:49:33;6.70;99.90
6270;DHT22;3168;51.684;6.954;2022-11-30T08:51:59;6.70;99.90
6270;DHT22;3168;51.684;6.954;2022-11-30T08:54:25;6.60;99.90
6270;DHT22;3168;51.684;6.954;2022-11-30T08:56:51;6.70;99.90
6270;DHT22;3168;51.684;6.954;2022-11-30T08:59:16;6.70;99.90
6270;DHT22;3168;51.684;6.954;2022-11-30T09:01:43;6.70;99.90
6270;DHT22;3168;51.684;6.954;2022-11-30T09:04:09;6.70;99.90
6270;DHT22;3168;51.684;6.954;2022-11-30T09:06:35;6.70;99.90
6270;DHT22;3168;51.684;6.954;2022-11-30T09:09:00;6.70;99.90
6270;DHT22;3168;51.684;6.954;2022-11-30T09:11:27;6.60;99.90
6270;DHT22;3168;51.684;6.954;2022-11-30T09:13:52;6.70;99.90
6270;DHT22;3168;51.684;6.954;2022-11-30T09:16:18;6.70;99.90
6270;DHT22;3168;51.684;6.954;2022-11-30T09:18:44;6.60;99.90
6270;DHT22;3168;51.684;6.954;2022-11-30T09:21:11;6.70;99.90
6270;DHT22;3168;51.684;6.954;2022-11-30T09:23:36;6.70;99.90
6270;DHT22;3168;51.684;6.954;2022-11-30T09:26:02;6.70;99.90
6270;DHT22;3168;51.684;6.954;2022-11-30T09:28:27;6.70;99.90
6270;DHT22;3168;51.684;6.954;2022-11-30T09:30:53;6.70;99.90
6270;DHT22;3168;51.684;6.954;2022-11-30T09:33:19;6.70;99.90
6270;DHT22;3168;51.684;6.954;2022-11-30T09:35:53;6.70;99.90
6270;DHT22;3168;51.684;6.954;2022-11-30T09:38:10;6.60;99.90
6270;DHT22;3168;51.684;6.954;2022-11-30T09:40:37;6.70;99.90
6270;DHT22;3168;51.684;6.954;2022-11-30T09:43:09;6.70;99.90
6270;DHT22;3168;51.684;6.954;2022-11-30T09:45:31;6.70;99.90
6270;DHT22;3168;51.684;6.954;2022-11-30T09:48:07;6.70;99.90
6270;DHT22;3168;51.684;6.954;2022-11-30T09:50:31;6.70;99.90
6270;DHT22;3168;51.684;6.954;2022-11-30T09:53:07;6.70;99.90
6270;DHT22;3168;51.684;6.954;2022-11-30T09:55:32;6.80;99.90
6270;DHT22;3168;51.684;6.954;2022-11-30T09:57:59;6.70;99.90
6270;DHT22;3168;51.684;6.954;2022-11-30T10:00:23;6.80;99.90
6270;DHT22;3168;51.684;6.954;2022-11-30T10:02:49;6.70;99.90
6270;DHT22;3168;51.684;6.954;2022-11-30T10:05:16;6.60;99.90
6270;DHT22;3168;51.684;6.954;2022-11-30T10:08:11;6.60;99.90
6270;DHT22;3168;51.684;6.954;2022-11-30T10:13:24;6.70;99.90
6270;DHT22;3168;51.684;6.954;2022-11-30T10:21:34;6.70;99.90
6270;DHT22;3168;51.684;6.954;2022-11-30T10:23:46;6.70;99.90
6270;DHT22;3168;51.684;6.954;2022-11-30T10:26:13;6.70;99.90
6270;DHT22;3168;51.684;6.954;2022-11-30T10:28:57;6.70;99.90
6270;DHT22;3168;51.684;6.954;2022-11-30T10:31:28;6.70;99.90
6270;DHT22;3168;51.684;6.954;2022-11-30T10:33:53;6.70;99.90
6270;DHT22;3168;51.684;6.954;2022-11-30T10:36:38;6.80;99.90
6270;DHT22;3168;51.684;6.954;2022-11-30T10:39:05;6.70;99.90
6270;DHT22;3168;51.684;6.954;2022-11-30T10:41:31;6.70;99.90
6270;DHT22;3168;51.684;6.954;2022-11-30T10:44:01;6.70;99.90
6270;DHT22;3168;51.684;6.954;2022-11-30T10:46:27;6.80;99.90
6270;DHT22;3168;51.684;6.954;2022-11-30T10:48:55;6.90;99.90
6270;DHT22;3168;51.684;6.954;2022-11-30T10:51:19;6.90;99.90
6270;DHT22;3168;51.684;6.954;2022-11-30T10:53:45;6.90;99.90
6270;DHT22;3168;51.684;6.954;2022-11-30T10:56:12;6.90;99.90
6270;DHT22;3168;51.684;6.954;2022-11-30T10:58:38;6.90;99.90
6270;DHT22;3168;51.684;6.954;2022-11-30T11:01:07;6.90;99.90
6270;DHT22;3168;51.684;6.954;2022-11-30T11:03:32;6.80;99.90
6270;DHT22;3168;51.684;6.954;2022-11-30T11:06:13;6.80;99.90
6270;DHT22;3168;51.684;6.954;2022-11-30T11:08:40;6.80;99.90
6270;DHT22;3168;51.684;6.954;2022-11-30T11:11:24;6.80;99.90
6270;DHT22;3168;51.684;6.954;2022-11-30T11:13:36;6.90;99.90
6270;DHT22;3168;51.684;6.954;2022-11-30T11:16:01;6.90;99.90
6270;DHT22;3168;51.684;6.954;2022-11-30T11:18:28;6.80;99.90
6270;DHT22;3168;51.684;6.954;2022-11-30T11:23:42;6.80;99.90
6270;DHT22;3168;51.684;6.954;2022-11-30T11:28:42;6.80;99.90
6270;DHT22;3168;51.684;6.954;2022-11-30T11:31:16;6.90;99.90
6270;DHT22;3168;51.684;6.954;2022-11-30T11:33:49;6.90;99.90
6270;DHT22;3168;51.684;6.954;2022-11-30T11:36:19;6.90;99.90
6270;DHT22;3168;51.684;6.954;2022-11-30T11:38:43;6.90;99.90
6270;DHT22;3168;51.684;6.954;2022-11-30T11:41:15;7.00;99.90
6270;DHT22;3168;51.684;6.954;2022-11-30T11:43:54;7.00;99.90
6270;DHT22;3168;51.684;6.954;2022-11-30T11:46:11;6.90;99.90
6270;DHT22;3168;51.684;6.954;2022-11-30T11:48:38;6.90;99.90
6270;DHT22;3168;51.684;6.954;2022-11-30T11:51:04;6.90;99.90
6270;DHT22;3168;51.684;6.954;2022-11-30T11:53:36;6.80;99.90
6270;DHT22;3168;51.684;6.954;2022-11-30T11:56:04;6.80;99.90
6270;DHT22;3168;51.684;6.954;2022-11-30T12:01:03;6.80;99.90
6270;DHT22;3168;51.684;6.954;2022-11-30T12:03:33;6.90;99.90
6270;DHT22;3168;51.684;6.954;2022-11-30T12:06:01;6.90;99.90
6270;DHT22;3168;51.684;6.954;2022-11-30T12:11:19;6.70;99.90
6270;DHT22;3168;51.684;6.954;2022-11-30T12:13:44;6.70;99.90
6270;DHT22;3168;51.684;6.954;2022-11-30T12:16:29;6.80;99.90
6270;DHT22;3168;51.684;6.954;2022-11-30T12:19:18;6.70;99.90
6270;DHT22;3168;51.684;6.954;2022-11-30T12:22:08;6.70;99.90
6270;DHT22;3168;51.684;6.954;2022-11-30T12:25:09;6.60;99.90
6270;DHT22;3168;51.684;6.954;2022-11-30T12:28:21;6.60;99.90
6270;DHT22;3168;51.684;6.954;2022-11-30T12:30:34;6.60;99.90
6270;DHT22;3168;51.684;6.954;2022-11-30T12:33:06;6.60;99.90
6270;DHT22;3168;51.684;6.954;2022-11-30T12:35:44;6.70;99.90
6270;DHT22;3168;51.684;6.954;2022-11-30T12:38:29;6.60;99.90
6270;DHT22;3168;51.684;6.954;2022-11-30T12:40:59;6.60;99.90
6270;DHT22;3168;51.684;6.954;2022-11-30T12:43:32;6.70;99.90
6270;DHT22;3168;51.684;6.954;2022-11-30T12:45:58;6.70;99.90
6270;DHT22;3168;51.684;6.954;2022-11-30T12:48:32;6.60;99.90
6270;DHT22;3168;51.684;6.954;2022-11-30T12:51:01;6.70;99.90
6270;DHT22;3168;51.684;6.954;2022-11-30T12:53:27;6.80;99.90
6270;DHT22;3168;51.684;6.954;2022-11-30T12:58:45;6.80;99.90
6270;DHT22;3168;51.684;6.954;2022-11-30T13:01:17;6.90;99.90
6270;DHT22;3168;51.684;6.954;2022-11-30T13:04:01;6.90;99.90
6270;DHT22;3168;51.684;6.954;2022-11-30T13:06:26;6.90;99.90
6270;DHT22;3168;51.684;6.954;2022-11-30T13:08:54;6.80;99.90
6270;DHT22;3168;51.684;6.954;2022-11-30T13:11:20;6.90;99.90
6270;DHT22;3168;51.684;6.954;2022-11-30T13:13:49;6.80;99.90
6270;DHT22;3168;51.684;6.954;2022-11-30T13:16:14;6.80;99.90
6270;DHT22;3168;51.684;6.954;2022-11-30T13:18:40;6.80;99.90
6270;DHT22;3168;51.684;6.954;2022-11-30T13:21:20;6.80;99.90
6270;DHT22;3168;51.684;6.954;2022-11-30T13:23:46;6.80;99.90
6270;DHT22;3168;51.684;6.954;2022-11-30T13:26:18;6.80;99.90
6270;DHT22;3168;51.684;6.954;2022-11-30T13:29:02;6.80;99.90
6270;DHT22;3168;51.684;6.954;2022-11-30T13:31:30;6.80;99.90
6270;DHT22;3168;51.684;6.954;2022-11-30T13:33:57;6.80;99.90
6270;DHT22;3168;51.684;6.954;2022-11-30T13:36:30;6.90;99.90
6270;DHT22;3168;51.684;6.954;2022-11-30T13:41:27;6.80;99.90
6270;DHT22;3168;51.684;6.954;2022-11-30T13:43:52;6.80;99.90
6270;DHT22;3168;51.684;6.954;2022-11-30T13:46:19;6.80;99.90
6270;DHT22;3168;51.684;6.954;2022-11-30T13:48:44;6.70;99.90
6270;DHT22;3168;51.684;6.954;2022-11-30T13:51:10;6.80;99.90
6270;DHT22;3168;51.684;6.954;2022-11-30T13:53:36;6.70;99.90
6270;DHT22;3168;51.684;6.954;2022-11-30T13:56:03;6.80;99.90
6270;DHT22;3168;51.684;6.954;2022-11-30T13:58:28;6.70;99.90
6270;DHT22;3168;51.684;6.954;2022-11-30T14:01:01;6.70;99.90
6270;DHT22;3168;51.684;6.954;2022-11-30T14:03:29;6.60;99.90
6270;DHT22;3168;51.684;6.954;2022-11-30T14:05:55;6.70;99.90
6270;DHT22;3168;51.684;6.954;2022-11-30T14:08:36;6.70;99.90
6270;DHT22;3168;51.684;6.954;2022-11-30T14:13:39;6.80;99.90
6270;DHT22;3168;51.684;6.954;2022-11-30T14:16:17;6.70;99.90
6270;DHT22;3168;51.684;6.954;2022-11-30T14:18:36;6.80;99.90
6270;DHT22;3168;51.684;6.954;2022-11-30T14:21:00;6.80;99.90
6270;DHT22;3168;51.684;6.954;2022-11-30T14:26:11;6.90;99.90
6270;DHT22;3168;51.684;6.954;2022-11-30T14:28:39;6.90;99.90
6270;DHT22;3168;51.684;6.954;2022-11-30T14:31:04;6.80;99.90
6270;DHT22;3168;51.684;6.954;2022-11-30T14:33:37;6.80;99.90
6270;DHT22;3168;51.684;6.954;2022-11-30T14:35:56;6.70;99.90
6270;DHT22;3168;51.684;6.954;2022-11-30T14:38:25;6.70;99.90
6270;DHT22;3168;51.684;6.954;2022-11-30T14:40:51;6.60;99.90
6270;DHT22;3168;51.684;6.954;2022-11-30T14:43:16;6.70;99.90
6270;DHT22;3168;51.684;6.954;2022-11-30T14:45:42;6.60;99.90
6270;DHT22;3168;51.684;6.954;2022-11-30T14:48:11;6.70;99.90
6270;DHT22;3168;51.684;6.954;2022-11-30T14:50:36;6.70;99.90
6270;DHT22;3168;51.684;6.954;2022-11-30T14:53:21;6.70;99.90
6270;DHT22;3168;51.684;6.954;2022-11-30T14:55:45;6.70;99.90
6270;DHT22;3168;51.684;6.954;2022-11-30T14:58:24;6.60;99.90
6270;DHT22;3168;51.684;6.954;2022-11-30T15:00:50;6.60;99.90
6270;DHT22;3168;51.684;6.954;2022-11-30T15:03:21;6.50;99.90
6270;DHT22;3168;51.684;6.954;2022-11-30T15:05:45;6.40;99.90
6270;DHT22;3168;51.684;6.954;2022-11-30T15:08:11;6.40;99.90
6270;DHT22;3168;51.684;6.954;2022-11-30T15:10:36;6.50;99.90
6270;DHT22;3168;51.684;6.954;2022-11-30T15:13:03;6.40;99.90
6270;DHT22;3168;51.684;6.954;2022-11-30T15:15:28;6.30;99.90
6270;DHT22;3168;51.684;6.954;2022-11-30T15:17:55;6.30;99.90
6270;DHT22;3168;51.684;6.954;2022-11-30T15:20:24;6.40;99.90
6270;DHT22;3168;51.684;6.954;2022-11-30T15:22:48;6.40;99.90
6270;DHT22;3168;51.684;6.954;2022-11-30T15:25:14;6.40;99.90
6270;DHT22;3168;51.684;6.954;2022-11-30T15:27:40;6.40;99.90
6270;DHT22;3168;51.684;6.954;2022-11-30T15:30:11;6.40;99.90
6270;DHT22;3168;51.684;6.954;2022-11-30T15:32:32;6.30;99.90
6270;DHT22;3168;51.684;6.954;2022-11-30T15:34:58;6.30;99.90
6270;DHT22;3168;51.684;6.954;2022-11-30T15:37:28;6.40;99.90
6270;DHT22;3168;51.684;6.954;2022-11-30T15:39:54;6.30;99.90
6270;DHT22;3168;51.684;6.954;2022-11-30T15:42:29;6.30;99.90
6270;DHT22;3168;51.684;6.954;2022-11-30T15:45:06;6.30;99.90
6270;DHT22;3168;51.684;6.954;2022-11-30T15:47:25;6.40;99.90
6270;DHT22;3168;51.684;6.954;2022-11-30T15:49:50;6.30;99.90
6270;DHT22;3168;51.684;6.954;2022-11-30T15:52:16;6.40;99.90
6270;DHT22;3168;51.684;6.954;2022-11-30T15:54:44;6.40;99.90
6270;DHT22;3168;51.684;6.954;2022-11-30T15:57:09;6.40;99.90
6270;DHT22;3168;51.684;6.954;2022-11-30T15:59:35;6.40;99.90
6270;DHT22;3168;51.684;6.954;2022-11-30T16:02:01;6.30;99.90
6270;DHT22;3168;51.684;6.954;2022-11-30T16:04:28;6.20;99.90
6270;DHT22;3168;51.684;6.954;2022-11-30T16:06:53;6.20;99.90
6270;DHT22;3168;51.684;6.954;2022-11-30T16:09:26;6.20;99.90
6270;DHT22;3168;51.684;6.954;2022-11-30T16:11:53;6.20;99.90
6270;DHT22;3168;51.684;6.954;2022-11-30T16:14:19;6.20;99.90
6270;DHT22;3168;51.684;6.954;2022-11-30T16:16:44;6.20;99.90
6270;DHT22;3168;51.684;6.954;2022-11-30T16:19:10;6.20;99.90
6270;DHT22;3168;51.684;6.954;2022-11-30T16:21:36;6.20;99.90
6270;DHT22;3168;51.684;6.954;2022-11-30T16:24:02;6.20;99.90
6270;DHT22;3168;51.684;6.954;2022-11-30T16:26:28;6.20;99.90
6270;DHT22;3168;51.684;6.954;2022-11-30T16:28:53;6.10;99.90
6270;DHT22;3168;51.684;6.954;2022-11-30T16:31:20;6.20;99.90
6270;DHT22;3168;51.684;6.954;2022-11-30T16:33:46;6.10;99.90
6270;DHT22;3168;51.684;6.954;2022-11-30T16:36:13;6.10;99.90
6270;DHT22;3168;51.684;6.954;2022-11-30T16:38:37;6.10;99.90
6270;DHT22;3168;51.684;6.954;2022-11-30T16:41:12;6.00;99.90
6270;DHT22;3168;51.684;6.954;2022-11-30T16:43:38;5.90;99.90
6270;DHT22;3168;51.684;6.954;2022-11-30T16:46:02;6.00;99.90
6270;DHT22;3168;51.684;6.954;2022-11-30T16:48:28;6.00;99.90
6270;DHT22;3168;51.684;6.954;2022-11-30T16:50:54;6.00;99.90
6270;DHT22;3168;51.684;6.954;2022-11-30T16:53:19;6.00;99.90